Time;durP1;ratioP1;P1;durP2;ratioP2;P2;SDS_P1;SDS_P2;PMS_P1;PMS_P2;Temp;Humidity;BMP_temperature;BMP_pressure;BME280_temperature;BME280_humidity;BME280_pressure;Samples;Min_cycle;Max_cycle;Signal;HPM_P1;HPM_P2
2022/06/13 00:01:56;;;;;;;5.50;1.92;;;18.20;97.50;;;;;;4096158;28;20439;-70
2022/06/13 00:03:58;;;;;;;3.25;1.30;;;18.30;97.60;;;;;;4095949;28;20028;-70
2022/06/13 00:05:59;;;;;;;2.35;1.45;;;18.20;97.50;;;;;;4094917;28;20027;-70
2022/06/13 00:07:59;;;;;;;2.17;1.10;;;18.20;97.80;;;;;;4095808;28;20039;-70
2022/06/13 00:10:00;;;;;;;2.95;1.27;;;18.20;99.80;;;;;;4096355;28;20043;-70
2022/06/13 00:12:01;;;;;;;4.60;1.52;;;18.20;99.90;;;;;;4095931;28;20111;-70
2022/06/13 00:14:02;;;;;;;2.72;1.40;;;18.20;98.40;;;;;;4095891;28;24782;-70
2022/06/13 00:16:03;;;;;;;2.92;1.38;;;18.10;98.70;;;;;;4095591;28;20047;-70
2022/06/13 00:18:04;;;;;;;2.92;1.40;;;18.10;98.60;;;;;;4096305;28;20122;-70
2022/06/13 00:20:06;;;;;;;1.90;1.30;;;18.10;98.80;;;;;;4095689;28;20039;-71
2022/06/13 00:22:06;;;;;;;2.30;1.38;;;18.10;99.60;;;;;;4095482;28;20050;-70
2022/06/13 00:24:07;;;;;;;3.38;1.63;;;18.00;99.60;;;;;;4095758;28;20035;-70
2022/06/13 00:26:08;;;;;;;5.35;1.73;;;18.00;99.40;;;;;;4093149;28;20035;-70
2022/06/13 00:28:09;;;;;;;3.45;1.60;;;18.00;99.60;;;;;;4096995;28;20055;-70
2022/06/13 00:30:10;;;;;;;3.70;1.58;;;18.00;99.20;;;;;;4095776;28;20102;-71
2022/06/13 00:32:11;;;;;;;3.90;1.70;;;17.90;98.80;;;;;;4097911;28;20543;-70
2022/06/13 00:34:11;;;;;;;4.18;1.55;;;17.90;99.70;;;;;;4095710;28;20039;-70
2022/06/13 00:36:13;;;;;;;4.55;2.00;;;17.90;99.40;;;;;;4096390;28;20534;-70
2022/06/13 00:38:14;;;;;;;5.25;1.58;;;17.90;99.70;;;;;;4095368;28;20035;-70
2022/06/13 00:40:15;;;;;;;4.93;1.52;;;17.90;99.40;;;;;;4097501;28;20440;-70
2022/06/13 00:42:19;;;;;;;2.85;1.48;;;17.90;99.90;;;;;;4098061;28;20031;-69
2022/06/13 00:44:40;;;;;;;2.83;1.58;;;17.80;99.40;;;;;;4095501;28;20042;-70
2022/06/13 00:46:41;;;;;;;3.75;1.80;;;17.80;99.10;;;;;;4094933;28;20050;-70
2022/06/13 00:48:41;;;;;;;3.15;1.38;;;17.70;99.80;;;;;;4097051;28;20043;-69
2022/06/13 00:50:49;;;;;;;3.05;1.50;;;17.80;99.90;;;;;;4096243;28;20039;-70
2022/06/13 00:52:58;;;;;;;2.88;1.38;;;17.70;99.30;;;;;;4092481;28;20039;-69
2022/06/13 00:54:59;;;;;;;3.28;1.70;;;17.70;99.10;;;;;;4095087;28;20047;-70
2022/06/13 00:57:00;;;;;;;2.53;1.50;;;17.60;99.60;;;;;;4094931;28;20122;-70
2022/06/13 00:59:05;;;;;;;1.73;1.40;;;17.60;99.90;;;;;;4096347;28;20039;-70
2022/06/13 01:01:06;;;;;;;4.38;1.80;;;17.60;99.90;;;;;;4094784;28;20553;-70
2022/06/13 01:03:07;;;;;;;3.25;1.65;;;17.50;99.90;;;;;;4094698;28;20095;-70
2022/06/13 01:05:09;;;;;;;5.15;1.65;;;17.50;99.90;;;;;;4097996;28;20047;-71
2022/06/13 01:07:10;;;;;;;5.47;1.80;;;17.50;99.90;;;;;;4097502;28;20391;-69
2022/06/13 01:09:13;;;;;;;4.60;1.92;;;17.50;99.90;;;;;;4098609;28;20443;-70
2022/06/13 01:11:18;;;;;;;3.65;1.67;;;17.50;99.90;;;;;;4098850;28;20035;-70
2022/06/13 01:13:19;;;;;;;2.72;1.55;;;17.50;99.90;;;;;;4097067;28;21529;-70
2022/06/13 01:15:54;;;;;;;3.95;1.67;;;17.50;99.90;;;;;;4096360;28;20039;-70
2022/06/13 01:18:27;;;;;;;5.75;1.95;;;17.50;99.90;;;;;;4082719;28;20041;-70
2022/06/13 01:21:03;;;;;;;4.82;2.10;;;17.50;99.90;;;;;;4092605;28;20047;-70
2022/06/13 01:23:57;;;;;;;2.40;1.50;;;17.50;99.90;;;;;;4094307;29;20126;-70
2022/06/13 01:26:39;;;;;;;3.22;1.60;;;17.50;99.90;;;;;;4092763;28;20031;-70
2022/06/13 01:29:06;;;;;;;4.65;1.85;;;17.50;99.90;;;;;;4087222;28;20034;-70
2022/06/13 01:31:44;;;;;;;4.10;1.77;;;17.50;99.90;;;;;;4091905;28;20039;-70
2022/06/13 01:34:15;;;;;;;2.13;1.52;;;17.50;99.90;;;;;;4094545;29;20098;-69
2022/06/13 01:36:36;;;;;;;4.20;1.70;;;17.50;99.90;;;;;;4092224;28;20035;-70
2022/06/13 01:38:51;;;;;;;3.42;1.80;;;17.40;99.90;;;;;;4097318;28;20042;-70
2022/06/13 01:41:06;;;;;;;3.60;1.70;;;17.40;99.90;;;;;;4095863;28;20106;-70
2022/06/13 01:43:21;;;;;;;3.83;1.83;;;17.40;99.90;;;;;;4092413;28;20387;-70
2022/06/13 01:45:52;;;;;;;3.72;1.90;;;17.40;99.90;;;;;;4091647;28;20034;-70
2022/06/13 01:48:02;;;;;;;5.45;2.00;;;17.40;99.90;;;;;;4087976;28;20063;-69
2022/06/13 01:50:22;;;;;;;3.20;1.85;;;17.40;99.90;;;;;;4097823;28;20035;-70
2022/06/13 01:52:36;;;;;;;5.18;2.40;;;17.40;99.90;;;;;;4098527;28;20077;-70
2022/06/13 01:55:13;;;;;;;3.50;2.03;;;17.40;99.90;;;;;;4096766;28;20498;-70
2022/06/13 01:57:32;;;;;;;5.35;2.85;;;17.40;99.90;;;;;;4092328;28;20047;-70
2022/06/13 01:59:54;;;;;;;5.82;2.83;;;17.40;99.90;;;;;;4098342;28;20047;-70
2022/06/13 02:02:31;;;;;;;4.43;2.30;;;17.40;99.90;;;;;;4097787;28;20098;-70
2022/06/13 02:04:37;;;;;;;4.57;2.42;;;17.30;99.90;;;;;;4083925;29;20066;-70
2022/06/13 02:06:43;;;;;;;6.60;2.70;;;17.30;99.90;;;;;;4095556;28;20113;-70
2022/06/13 02:08:57;;;;;;;5.68;3.03;;;17.30;99.90;;;;;;4097317;28;20055;-70
2022/06/13 02:11:32;;;;;;;5.43;2.78;;;17.30;99.90;;;;;;4100064;28;20035;-70
2022/06/13 02:13:38;;;;;;;4.45;2.47;;;17.30;99.90;;;;;;4091143;28;20391;-70
2022/06/13 02:15:45;;;;;;;5.03;2.42;;;17.20;99.90;;;;;;4095076;28;20054;-70
2022/06/13 02:18:06;;;;;;;6.45;2.90;;;17.20;99.90;;;;;;4097750;28;20036;-69
2022/06/13 02:20:16;;;;;;;5.75;2.85;;;17.20;99.90;;;;;;4098970;28;20127;-71
2022/06/13 02:22:38;;;;;;;5.78;2.92;;;17.20;99.90;;;;;;4096299;28;20035;-71
2022/06/13 02:24:47;;;;;;;4.28;2.88;;;17.20;99.90;;;;;;4099808;28;20039;-69
2022/06/13 02:26:52;;;;;;;4.43;2.95;;;17.20;99.90;;;;;;4100085;28;20031;-70
2022/06/13 02:29:33;;;;;;;7.72;3.40;;;17.20;99.90;;;;;;4101753;28;20061;-70
2022/06/13 02:31:52;;;;;;;8.35;3.10;;;17.20;99.90;;;;;;4049724;29;20047;-70
2022/06/13 02:34:02;;;;;;;5.95;3.33;;;17.20;99.90;;;;;;4096809;28;20114;-70
2022/06/13 02:36:34;;;;;;;5.10;3.33;;;17.10;99.90;;;;;;4093842;28;20035;-70
2022/06/13 02:39:03;;;;;;;7.07;3.30;;;17.20;99.90;;;;;;4093750;28;20098;-70
2022/06/13 02:41:09;;;;;;;7.38;3.40;;;17.20;99.90;;;;;;4099649;28;20043;-70
2022/06/13 02:43:16;;;;;;;9.93;4.18;;;17.20;99.90;;;;;;4098421;28;20039;-70
2022/06/13 02:45:27;;;;;;;5.18;3.10;;;17.20;99.90;;;;;;4093574;28;20426;-71
2022/06/13 02:47:37;;;;;;;4.95;2.90;;;17.10;99.90;;;;;;4101573;28;20570;-70
2022/06/13 02:49:43;;;;;;;7.25;3.22;;;17.20;99.90;;;;;;4098019;28;20517;-70
2022/06/13 02:51:53;;;;;;;7.30;3.33;;;17.20;99.90;;;;;;4100864;28;20031;-71
2022/06/13 02:54:12;;;;;;;7.85;4.00;;;17.20;99.90;;;;;;4093623;28;20062;-70
2022/06/13 02:56:31;;;;;;;6.75;3.75;;;17.10;99.90;;;;;;4099837;28;20498;-69
2022/06/13 02:58:43;;;;;;;6.43;3.20;;;17.10;99.90;;;;;;4097289;28;20482;-70
2022/06/13 03:01:19;;;;;;;11.20;3.63;;;17.10;99.90;;;;;;4093241;28;20027;-71
2022/06/13 03:03:41;;;;;;;8.65;4.43;;;17.10;99.90;;;;;;4051904;28;20120;-70
2022/06/13 03:06:14;;;;;;;6.30;3.40;;;17.00;99.90;;;;;;4095566;28;20590;-70
2022/06/13 03:08:32;;;;;;;9.75;3.97;;;17.00;99.90;;;;;;4084153;28;20057;-71
2022/06/13 03:11:02;;;;;;;8.18;3.13;;;17.10;99.90;;;;;;4099736;28;20035;-70
2022/06/13 03:13:13;;;;;;;7.50;3.58;;;17.00;99.90;;;;;;4096404;28;20055;-70
2022/06/13 03:15:19;;;;;;;7.45;3.63;;;17.10;99.90;;;;;;4094923;28;20043;-70
2022/06/13 03:17:49;;;;;;;7.75;3.40;;;17.10;99.90;;;;;;4100123;28;20054;-70
2022/06/13 03:20:14;;;;;;;6.65;4.05;;;17.10;99.90;;;;;;4095829;28;20055;-69
2022/06/13 03:22:26;;;;;;;6.53;3.70;;;17.10;99.90;;;;;;4095903;28;20029;-69
2022/06/13 03:24:39;;;;;;;14.73;4.53;;;17.10;99.90;;;;;;4098696;28;20035;-69
2022/06/13 03:26:42;;;;;;;;;;;17.00;99.90;;;;;;4098379;28;20035;-70
2022/06/13 03:28:57;;;;;;;10.38;3.65;;;17.10;99.90;;;;;;4100264;28;20136;-70
2022/06/13 03:31:11;;;;;;;10.45;4.07;;;17.00;99.90;;;;;;4096191;28;20031;-70
2022/06/13 03:35:38;;;;;;;8.57;4.20;;;17.10;99.90;;;;;;4097863;28;20474;-70
2022/06/13 03:37:43;;;;;;;6.28;3.60;;;17.10;99.90;;;;;;4101697;28;20028;-70
2022/06/13 03:39:59;;;;;;;6.72;3.30;;;17.10;99.90;;;;;;4096297;28;20038;-70
2022/06/13 03:42:10;;;;;;;7.95;3.90;;;17.10;99.90;;;;;;4096855;28;20086;-70
2022/06/13 03:44:26;;;;;;;9.68;3.97;;;17.20;99.90;;;;;;4095184;28;20043;-70
2022/06/13 03:46:39;;;;;;;9.52;3.85;;;17.10;99.90;;;;;;4095447;28;20487;-70
2022/06/13 03:48:50;;;;;;;10.27;4.05;;;17.20;99.90;;;;;;4096263;28;20039;-70
2022/06/13 03:50:57;;;;;;;9.93;4.20;;;17.10;99.90;;;;;;4093527;28;20039;-71
2022/06/13 03:53:04;;;;;;;8.30;3.78;;;17.00;99.90;;;;;;4096589;28;20398;-70
2022/06/13 03:55:11;;;;;;;12.10;5.00;;;16.90;99.90;;;;;;4097352;28;20080;-70
2022/06/13 03:57:24;;;;;;;11.48;4.57;;;16.80;99.90;;;;;;4096023;28;20039;-70
2022/06/13 04:00:09;;;;;;;10.13;3.97;;;16.70;99.90;;;;;;4096839;28;20054;-70
2022/06/13 04:02:13;;;;;;;11.68;4.10;;;16.60;99.90;;;;;;4095059;28;20514;-71
2022/06/13 04:04:21;;;;;;;8.88;3.60;;;16.50;99.90;;;;;;4083945;29;20039;-71
2022/06/13 04:06:41;;;;;;;7.68;3.55;;;16.50;99.90;;;;;;4095653;28;20483;-71
2022/06/13 04:08:42;;;;;;;11.77;4.22;;;16.40;99.90;;;;;;4094955;28;20422;-70
2022/06/13 04:11:05;;;;;;;11.65;4.05;;;16.40;99.90;;;;;;4095636;28;20097;-70
2022/06/13 04:13:19;;;;;;;6.80;3.80;;;16.30;99.90;;;;;;4093259;28;20035;-70
2022/06/13 04:15:52;;;;;;;9.15;3.90;;;16.30;99.90;;;;;;4093908;28;20130;-70
2022/06/13 04:18:34;;;;;;;11.65;4.25;;;16.30;99.90;;;;;;4094365;28;20109;-71
2022/06/13 04:20:49;;;;;;;9.63;3.88;;;16.30;99.90;;;;;;4093880;29;20143;-70
2022/06/13 04:22:55;;;;;;;12.25;4.40;;;16.30;99.90;;;;;;4079230;29;20391;-71
2022/06/13 04:25:02;;;;;;;8.85;3.28;;;16.30;99.90;;;;;;4097479;28;20460;-71
2022/06/13 04:27:06;;;;;;;8.10;3.20;;;16.40;99.90;;;;;;4092755;28;20042;-71
2022/06/13 04:29:26;;;;;;;5.55;3.17;;;16.40;99.90;;;;;;4094575;28;20051;-71
2022/06/13 04:31:29;;;;;;;6.95;3.15;;;16.50;99.90;;;;;;4092314;28;20032;-71
2022/06/13 04:33:58;;;;;;;9.90;3.80;;;16.50;99.90;;;;;;4095380;28;20818;-71
2022/06/13 04:36:00;;;;;;;5.47;3.22;;;16.60;99.90;;;;;;4085873;28;20102;-71
2022/06/13 04:38:08;;;;;;;7.13;3.45;;;16.60;99.90;;;;;;4097726;28;20098;-71
2022/06/13 04:40:15;;;;;;;6.07;3.50;;;16.60;99.90;;;;;;4094929;28;20027;-71
2022/06/13 04:42:18;;;;;;;6.63;3.15;;;16.70;99.90;;;;;;4098073;28;20043;-71
2022/06/13 04:44:22;;;;;;;7.22;3.40;;;16.70;99.90;;;;;;4094853;28;20031;-70
2022/06/13 04:46:26;;;;;;;8.43;3.70;;;16.70;99.90;;;;;;4094646;28;20074;-71
2022/06/13 04:48:28;;;;;;;6.95;3.70;;;16.80;99.90;;;;;;4098551;28;20024;-71
2022/06/13 04:50:39;;;;;;;8.65;3.42;;;16.70;99.90;;;;;;4096757;28;20032;-71
2022/06/13 04:52:41;;;;;;;9.48;3.92;;;16.70;99.90;;;;;;4095907;28;20039;-71
2022/06/13 04:55:06;;;;;;;7.85;3.53;;;16.60;99.90;;;;;;4087958;29;20047;-70
2022/06/13 04:57:13;;;;;;;11.30;4.28;;;16.60;99.90;;;;;;4084912;28;20114;-71
2022/06/13 04:59:15;;;;;;;9.93;4.30;;;16.50;99.90;;;;;;4091994;28;20047;-70
2022/06/13 05:01:33;;;;;;;7.40;3.60;;;16.50;99.90;;;;;;4093416;28;20074;-71
2022/06/13 05:03:38;;;;;;;8.88;4.38;;;16.40;99.90;;;;;;4092033;28;21760;-70
2022/06/13 05:05:46;;;;;;;9.85;4.47;;;16.40;99.90;;;;;;4095438;28;20807;-70
2022/06/13 05:07:47;;;;;;;9.15;4.63;;;16.30;99.90;;;;;;4093536;28;20085;-71
2022/06/13 05:09:52;;;;;;;7.53;3.55;;;16.30;99.90;;;;;;4096172;28;20115;-73
2022/06/13 05:12:21;;;;;;;9.05;3.38;;;16.30;99.90;;;;;;4094545;28;20175;-72
2022/06/13 05:14:30;;;;;;;11.82;3.95;;;16.40;99.90;;;;;;4087217;28;20042;-73
2022/06/13 05:16:36;;;;;;;7.45;4.05;;;16.40;99.90;;;;;;4092453;28;20031;-72
2022/06/13 05:18:59;;;;;;;7.90;3.83;;;16.30;99.90;;;;;;4093850;28;20499;-72
2022/06/13 05:21:27;;;;;;;7.88;3.75;;;16.40;99.90;;;;;;4095042;29;20128;-72
2022/06/13 05:24:14;;;;;;;9.48;4.50;;;16.40;99.90;;;;;;4089436;28;20037;-72
2022/06/13 05:26:15;;;;;;;6.53;3.63;;;16.30;99.90;;;;;;4073006;28;20051;-72
2022/06/13 05:28:25;;;;;;;7.32;3.97;;;16.40;99.90;;;;;;4089498;28;20516;-71
2022/06/13 05:30:26;;;;;;;8.45;4.05;;;16.40;99.90;;;;;;4090355;28;20114;-72
2022/06/13 05:32:27;;;;;;;12.15;4.68;;;16.40;99.90;;;;;;4091723;28;20031;-72
2022/06/13 05:34:34;;;;;;;8.05;4.25;;;16.40;99.90;;;;;;4094346;28;20070;-72
2022/06/13 05:36:35;;;;;;;8.43;4.45;;;16.40;99.90;;;;;;4094933;28;20107;-72
2022/06/13 05:38:41;;;;;;;6.47;3.72;;;16.40;99.90;;;;;;4080929;28;20068;-72
2022/06/13 05:40:42;;;;;;;7.10;4.30;;;16.50;99.90;;;;;;4078238;29;20027;-72
2022/06/13 05:42:42;;;;;;;9.40;4.10;;;16.50;99.90;;;;;;4093685;28;20467;-72
2022/06/13 05:44:43;;;;;;;10.93;4.28;;;16.50;99.90;;;;;;4084858;29;20043;-72
2022/06/13 05:46:44;;;;;;;8.38;3.97;;;16.60;99.90;;;;;;4097561;28;20050;-72
2022/06/13 05:48:45;;;;;;;13.18;4.72;;;16.60;99.90;;;;;;4098390;28;20039;-72
2022/06/13 05:50:45;;;;;;;10.30;3.95;;;16.60;99.90;;;;;;4096845;28;20031;-72
2022/06/13 05:52:46;;;;;;;11.73;4.50;;;16.60;99.90;;;;;;4097070;28;20110;-71
2022/06/13 05:54:47;;;;;;;8.73;4.53;;;16.60;99.90;;;;;;4097711;28;20051;-72
2022/06/13 05:56:47;;;;;;;14.02;4.30;;;16.70;99.90;;;;;;4097572;28;20403;-72
2022/06/13 05:58:52;;;;;;;11.82;4.55;;;16.70;99.90;;;;;;4099782;28;20422;-72
2022/06/13 06:00:55;;;;;;;8.02;4.43;;;16.70;99.90;;;;;;4097463;29;20027;-72
2022/06/13 06:02:55;;;;;;;11.20;4.85;;;16.80;99.90;;;;;;4096959;28;20039;-72
2022/06/13 06:04:56;;;;;;;16.17;5.90;;;16.90;99.90;;;;;;4098024;28;20123;-72
2022/06/13 06:06:57;;;;;;;10.02;5.03;;;17.00;99.90;;;;;;4098095;29;20086;-72
2022/06/13 06:08:58;;;;;;;10.68;5.25;;;17.20;99.90;;;;;;4098071;28;20031;-72
2022/06/13 06:10:59;;;;;;;11.52;4.90;;;17.50;99.90;;;;;;4094596;28;20031;-72
2022/06/13 06:13:00;;;;;;;11.27;4.97;;;17.50;99.90;;;;;;4095540;28;20101;-72
2022/06/13 06:15:00;;;;;;;13.52;5.93;;;17.60;99.90;;;;;;4094895;28;20555;-72
2022/06/13 06:17:01;;;;;;;16.45;4.60;;;17.60;99.90;;;;;;4094516;28;20118;-72
2022/06/13 06:19:02;;;;;;;13.45;5.50;;;17.70;99.90;;;;;;4094840;28;20506;-72
2022/06/13 06:21:02;;;;;;;12.40;4.20;;;17.70;99.90;;;;;;4094169;28;20042;-72
2022/06/13 06:23:04;;;;;;;11.27;4.88;;;17.80;99.90;;;;;;4095883;28;20039;-72
2022/06/13 06:25:04;;;;;;;9.40;4.85;;;17.90;99.90;;;;;;4095323;28;20126;-72
2022/06/13 06:27:08;;;;;;;10.98;5.25;;;18.00;99.90;;;;;;4094540;28;20051;-72
2022/06/13 06:29:08;;;;;;;12.00;4.85;;;18.20;99.90;;;;;;4095441;28;20071;-72
2022/06/13 06:31:10;;;;;;;13.98;5.85;;;18.40;99.90;;;;;;4093675;28;20058;-72
2022/06/13 06:33:10;;;;;;;12.13;4.53;;;18.50;99.90;;;;;;4094749;28;20123;-72
2022/06/13 06:35:11;;;;;;;8.80;4.57;;;18.60;99.90;;;;;;4094961;28;20403;-72
2022/06/13 06:37:11;;;;;;;12.25;5.40;;;18.70;99.90;;;;;;4095029;28;20035;-72
2022/06/13 06:39:12;;;;;;;9.93;5.10;;;18.80;99.90;;;;;;4095286;28;20456;-72
2022/06/13 06:41:13;;;;;;;8.13;4.80;;;18.80;99.90;;;;;;4091579;28;20050;-72
2022/06/13 06:43:14;;;;;;;17.02;4.85;;;18.90;99.90;;;;;;4094802;28;20507;-72
2022/06/13 06:45:15;;;;;;;14.07;4.80;;;19.00;99.90;;;;;;4094087;28;20066;-72
2022/06/13 06:47:15;;;;;;;11.60;4.65;;;19.10;99.90;;;;;;4093971;28;20046;-72
2022/06/13 06:49:16;;;;;;;12.40;4.90;;;19.20;99.90;;;;;;4094856;28;20049;-73
2022/06/13 06:51:17;;;;;;;10.45;5.47;;;19.30;99.90;;;;;;4093294;28;20130;-73
2022/06/13 06:53:21;;;;;;;12.18;5.47;;;19.30;99.90;;;;;;4092385;28;20067;-72
2022/06/13 07:00:06;;;;;;;12.65;5.68;;;19.50;99.90;;;;;;4093767;28;20114;-74
2022/06/13 07:02:07;;;;;;;15.20;5.43;;;19.60;99.90;;;;;;4094813;28;20027;-72
2022/06/13 07:04:08;;;;;;;13.00;5.85;;;19.70;99.90;;;;;;4094259;28;20598;-72
2022/06/13 07:06:09;;;;;;;11.82;5.85;;;19.80;99.90;;;;;;4093244;28;20023;-72
2022/06/13 07:08:10;;;;;;;12.25;5.72;;;19.90;99.90;;;;;;4095051;28;20028;-72
2022/06/13 07:10:12;;;;;;;17.27;7.38;;;19.90;99.90;;;;;;4092873;28;20455;-72
2022/06/13 07:12:13;;;;;;;11.45;5.70;;;19.80;99.90;;;;;;4094968;28;20102;-72
2022/06/13 07:14:14;;;;;;;16.33;7.00;;;19.80;99.90;;;;;;4077941;29;20043;-72
2022/06/13 07:16:15;;;;;;;11.65;6.20;;;19.80;99.90;;;;;;4094008;28;20039;-72
2022/06/13 07:18:16;;;;;;;14.27;6.43;;;19.80;99.90;;;;;;4075630;29;20309;-72
2022/06/13 07:20:17;;;;;;;16.35;6.72;;;19.80;99.90;;;;;;4094021;28;20369;-72
2022/06/13 07:22:21;;;;;;;13.10;5.68;;;19.90;99.90;;;;;;4094609;28;20132;-72
2022/06/13 07:24:22;;;;;;;15.27;6.90;;;19.90;99.90;;;;;;4093187;28;20047;-72
2022/06/13 07:26:23;;;;;;;14.35;6.82;;;19.80;99.90;;;;;;4093420;28;20045;-72
2022/06/13 07:28:23;;;;;;;13.15;6.15;;;19.80;99.90;;;;;;4094445;28;20066;-72
2022/06/13 07:30:26;;;;;;;15.63;6.90;;;19.90;99.90;;;;;;4093865;28;20395;-72
2022/06/13 07:32:27;;;;;;;15.82;6.90;;;19.90;99.90;;;;;;4077503;29;20115;-72
2022/06/13 07:34:30;;;;;;;15.43;6.43;;;20.10;99.90;;;;;;4094192;28;20518;-71
2022/06/13 07:36:30;;;;;;;13.55;7.07;;;20.10;99.90;;;;;;4091832;28;20039;-70
2022/06/13 07:38:31;;;;;;;14.00;6.57;;;20.10;99.90;;;;;;4094133;28;20039;-72
2022/06/13 07:40:32;;;;;;;14.80;6.85;;;20.10;99.90;;;;;;4075242;29;20099;-72
2022/06/13 07:42:41;;;;;;;15.55;6.30;;;20.30;99.90;;;;;;4092269;28;20040;-72
2022/06/13 07:44:41;;;;;;;13.57;6.97;;;20.30;99.90;;;;;;4094162;28;20495;-72
2022/06/13 07:46:43;;;;;;;14.45;6.45;;;20.30;99.90;;;;;;4094005;28;20098;-72
2022/06/13 07:48:47;;;;;;;16.88;6.07;;;20.40;99.90;;;;;;4093418;28;20066;-72
2022/06/13 07:50:48;;;;;;;11.55;6.53;;;20.50;99.90;;;;;;4091661;28;20050;-73
2022/06/13 07:52:50;;;;;;;14.02;6.45;;;20.50;99.90;;;;;;4091578;28;20055;-72
2022/06/13 07:54:51;;;;;;;10.90;5.88;;;20.60;99.90;;;;;;4094063;28;20750;-72
2022/06/13 07:56:51;;;;;;;12.63;5.60;;;20.60;99.90;;;;;;4091540;28;20074;-72
2022/06/13 07:58:53;;;;;;;11.45;5.78;;;20.60;99.90;;;;;;4094013;28;20114;-71
2022/06/13 08:00:54;;;;;;;15.48;6.97;;;20.70;99.90;;;;;;4093278;28;20042;-72
2022/06/13 08:02:54;;;;;;;17.20;6.63;;;20.70;99.90;;;;;;4094102;28;20036;-72
2022/06/13 08:04:55;;;;;;;12.77;5.68;;;20.70;99.90;;;;;;4093614;28;20565;-72
2022/06/13 08:06:55;;;;;;;14.85;5.97;;;20.70;99.90;;;;;;4090279;28;20917;-72
2022/06/13 08:08:56;;;;;;;15.63;5.82;;;20.60;99.90;;;;;;4071997;29;20036;-72
2022/06/13 08:10:59;;;;;;;16.42;5.85;;;20.50;99.90;;;;;;4082921;28;20749;-72
2022/06/13 08:12:59;;;;;;;10.13;4.85;;;20.40;99.90;;;;;;4075522;29;20058;-72
2022/06/13 08:15:00;;;;;;;8.68;3.95;;;20.40;99.90;;;;;;4091338;28;20051;-72
2022/06/13 08:17:00;;;;;;;14.43;5.95;;;20.40;99.90;;;;;;4091255;28;20039;-72
2022/06/13 08:19:03;;;;;;;16.98;5.18;;;20.50;99.90;;;;;;4090864;28;20050;-72
2022/06/13 08:21:04;;;;;;;;;;;20.40;99.90;;;;;;4092179;28;20495;-72
2022/06/13 08:23:08;;;;;;;11.55;4.78;;;20.30;99.90;;;;;;4090677;28;19918;-72
2022/06/13 08:25:15;;;;;;;10.60;4.38;;;20.20;99.90;;;;;;4091738;28;20050;-73
2022/06/13 08:27:15;;;;;;;13.85;5.00;;;20.30;99.90;;;;;;4091694;28;20499;-72
2022/06/13 08:29:16;;;;;;;12.75;5.45;;;20.20;99.90;;;;;;4092329;28;20383;-72
2022/06/13 08:31:19;;;;;;;10.07;4.28;;;20.00;99.90;;;;;;4090231;28;20082;-72
2022/06/13 08:33:21;;;;;;;11.05;4.90;;;20.00;99.90;;;;;;4086414;28;20084;-72
2022/06/13 08:35:22;;;;;;;12.68;4.95;;;20.00;99.90;;;;;;4091703;28;20118;-72
2022/06/13 08:37:22;;;;;;;13.30;4.85;;;19.90;99.90;;;;;;4088919;28;20066;-72
2022/06/13 08:39:23;;;;;;;15.13;4.68;;;19.80;99.90;;;;;;4088324;28;20126;-72
2022/06/13 08:41:39;;;;;;;9.65;4.68;;;19.80;99.90;;;;;;4088284;28;20042;-72
2022/06/13 08:44:09;;;;;;;9.73;4.50;;;19.90;99.90;;;;;;4092563;28;20039;-71
2022/06/13 08:46:31;;;;;;;10.02;4.20;;;20.00;99.90;;;;;;4091939;28;20028;-72
2022/06/13 08:48:39;;;;;;;12.20;4.45;;;20.20;99.90;;;;;;4091316;28;20037;-72
2022/06/13 08:50:53;;;;;;;12.43;4.95;;;20.30;99.90;;;;;;4092419;28;20044;-71
2022/06/13 08:53:20;;;;;;;9.52;3.88;;;20.30;99.90;;;;;;4088400;28;20570;-72
2022/06/13 08:55:44;;;;;;;7.63;3.85;;;20.40;99.90;;;;;;4090097;28;20046;-72
2022/06/13 08:58:03;;;;;;;8.38;3.47;;;20.50;99.90;;;;;;4091858;28;20131;-71
2022/06/13 09:00:12;;;;;;;8.00;3.03;;;20.60;99.90;;;;;;4091439;28;20055;-72
2022/06/13 09:02:44;;;;;;;14.18;3.45;;;20.60;99.90;;;;;;4090734;28;20042;-71
2022/06/13 09:04:55;;;;;;;7.50;3.43;;;20.70;99.90;;;;;;4075615;29;20466;-71
2022/06/13 09:07:05;;;;;;;10.55;3.50;;;20.70;99.90;;;;;;4091420;28;20058;-72
2022/06/13 09:09:20;;;;;;;11.10;3.63;;;20.70;99.90;;;;;;4091600;28;20497;-71
2022/06/13 09:11:36;;;;;;;9.02;3.42;;;20.70;99.90;;;;;;4090919;28;20034;-71
2022/06/13 09:13:40;;;;;;;9.10;3.45;;;20.80;99.90;;;;;;4091092;28;20050;-71
2022/06/13 09:15:59;;;;;;;6.18;2.90;;;20.80;99.90;;;;;;4091926;28;20054;-71
2022/06/13 09:18:14;;;;;;;11.20;3.58;;;20.80;99.90;;;;;;4092924;28;20037;-72
2022/06/13 09:20:50;;;;;;;7.80;3.10;;;20.80;99.90;;;;;;4091191;28;20043;-72
2022/06/13 09:23:24;;;;;;;7.57;2.70;;;20.80;99.90;;;;;;4078888;28;20035;-72
2022/06/13 09:25:37;;;;;;;10.90;3.65;;;20.90;99.90;;;;;;4091034;28;20479;-72
2022/06/13 09:27:46;;;;;;;10.30;3.53;;;20.90;99.90;;;;;;4091835;28;20049;-71
2022/06/13 09:30:09;;;;;;;10.40;3.20;;;20.90;99.90;;;;;;4090269;28;20113;-72
2022/06/13 09:32:17;;;;;;;10.38;4.00;;;20.90;99.90;;;;;;4091563;28;20050;-72
2022/06/13 09:34:36;;;;;;;13.07;3.63;;;21.00;99.90;;;;;;4092733;28;20047;-72
2022/06/13 09:36:43;;;;;;;11.07;3.28;;;20.70;99.90;;;;;;4091030;28;20376;-72
2022/06/13 09:39:08;;;;;;;14.05;3.33;;;20.60;99.90;;;;;;4088969;28;20038;-72
2022/06/13 09:41:31;;;;;;;14.80;3.05;;;20.60;99.90;;;;;;4087787;28;20039;-71
2022/06/13 09:43:52;;;;;;;8.00;2.63;;;20.50;99.90;;;;;;4092077;28;20031;-72
2022/06/13 09:46:25;;;;;;;8.25;2.47;;;20.40;99.90;;;;;;4091800;28;20134;-72
2022/06/13 09:48:37;;;;;;;6.45;2.30;;;20.30;99.90;;;;;;4060876;29;20044;-72
2022/06/13 09:51:02;;;;;;;5.47;2.05;;;20.30;99.90;;;;;;4076392;28;20419;-72
2022/06/13 09:53:32;;;;;;;10.25;3.00;;;20.40;99.90;;;;;;4091221;28;20136;-72
2022/06/13 09:55:47;;;;;;;6.28;2.03;;;20.60;99.90;;;;;;4089436;28;20047;-72
2022/06/13 09:58:03;;;;;;;7.20;2.25;;;20.60;99.80;;;;;;4093013;28;20580;-72
2022/06/13 10:00:46;;;;;;;7.88;2.03;;;20.70;99.10;;;;;;4088983;28;20487;-72
2022/06/13 10:03:15;;;;;;;4.50;1.73;;;20.80;99.90;;;;;;4091293;28;20066;-72
2022/06/13 10:05:39;;;;;;;8.00;1.80;;;20.90;99.90;;;;;;4075157;29;20059;-73
2022/06/13 10:08:04;;;;;;;6.93;1.80;;;21.10;99.90;;;;;;4092249;28;20058;-72
2022/06/13 10:10:10;;;;;;;6.10;1.73;;;21.20;98.10;;;;;;4091121;28;20043;-72
2022/06/13 10:12:37;;;;;;;8.40;1.58;;;21.30;97.70;;;;;;4092330;28;20071;-72
2022/06/13 10:15:15;;;;;;;3.47;1.30;;;21.20;96.70;;;;;;4089776;28;20062;-71
2022/06/13 10:17:24;;;;;;;7.07;1.83;;;21.20;96.00;;;;;;4091328;28;20046;-72
2022/06/13 10:19:35;;;;;;;5.55;1.50;;;21.10;97.30;;;;;;4077414;29;20042;-72
2022/06/13 10:21:50;;;;;;;3.35;1.27;;;21.00;98.50;;;;;;4092948;28;20515;-72
2022/06/13 10:23:59;;;;;;;5.40;1.80;;;21.00;98.40;;;;;;4095875;28;20043;-72
2022/06/13 10:26:30;;;;;;;4.85;1.65;;;21.10;98.60;;;;;;4092579;28;20039;-72
2022/06/13 10:28:57;;;;;;;4.60;1.75;;;20.90;99.50;;;;;;4094172;28;20055;-73
2022/06/13 10:31:14;;;;;;;4.70;1.60;;;20.80;97.80;;;;;;4096479;28;20374;-72
2022/06/13 10:33:44;;;;;;;4.95;1.27;;;20.70;98.60;;;;;;4094414;28;20097;-72
2022/06/13 10:35:50;;;;;;;6.32;1.92;;;20.80;99.90;;;;;;4087409;28;20035;-72
2022/06/13 10:37:56;;;;;;;5.85;1.98;;;20.90;98.30;;;;;;4094210;28;20081;-72
2022/06/13 10:40:00;;;;;;;7.15;2.20;;;20.90;97.80;;;;;;4095253;28;20032;-72
2022/06/13 10:42:08;;;;;;;4.85;1.67;;;20.90;99.00;;;;;;4093217;28;20079;-72
2022/06/13 10:44:18;;;;;;;3.28;1.55;;;20.90;99.80;;;;;;4095258;28;20101;-73
2022/06/13 10:46:18;;;;;;;8.60;1.88;;;21.00;95.40;;;;;;4093854;28;20039;-72
2022/06/13 10:48:24;;;;;;;4.18;1.10;;;21.00;95.40;;;;;;4093907;28;20035;-72
2022/06/13 10:50:44;;;;;;;5.18;1.52;;;21.10;94.90;;;;;;4092357;28;20047;-72
2022/06/13 10:52:50;;;;;;;4.00;1.40;;;21.10;94.70;;;;;;4092682;28;20047;-72
2022/06/13 10:55:00;;;;;;;3.70;1.38;;;21.10;94.80;;;;;;4094159;28;20047;-73
2022/06/13 10:57:06;;;;;;;3.28;1.23;;;21.10;94.90;;;;;;4093610;28;20024;-72
2022/06/13 10:59:24;;;;;;;5.95;1.30;;;21.30;96.30;;;;;;4093765;28;20036;-73
2022/06/13 11:01:28;;;;;;;5.00;1.80;;;21.40;95.60;;;;;;4090025;28;20095;-72
2022/06/13 11:03:29;;;;;;;7.75;1.30;;;21.40;96.00;;;;;;4093872;28;20023;-73
2022/06/13 11:05:30;;;;;;;5.43;1.60;;;21.50;97.00;;;;;;4092051;28;20479;-72
2022/06/13 11:07:33;;;;;;;4.20;1.40;;;21.50;97.10;;;;;;4097013;28;20072;-72
2022/06/13 11:09:57;;;;;;;4.50;1.50;;;21.40;95.60;;;;;;4095438;28;20109;-72
2022/06/13 11:12:01;;;;;;;4.05;1.33;;;21.40;94.90;;;;;;4095876;28;20047;-72
2022/06/13 11:14:02;;;;;;;4.25;1.15;;;21.30;96.00;;;;;;4096002;28;20035;-72
2022/06/13 11:23:57;;;;;;;2.40;0.73;;;21.00;95.30;;;;;;4094630;28;20044;-72
2022/06/13 11:25:58;;;;;;;2.03;0.80;;;21.10;94.00;;;;;;4095417;28;20047;-72
2022/06/13 11:28:03;;;;;;;3.03;0.60;;;21.20;94.30;;;;;;4093810;28;20058;-72
2022/06/13 11:30:34;;;;;;;3.10;0.77;;;21.10;93.50;;;;;;4094008;28;20035;-73